New Orleans, LA (70182)

5:24 PM CDT on September 02, 2015 (GMT -0500)
gentilly terrace 6$ | | Change Station
CLOSE
Current Station
Personal Weather Station
Location: New Orleans, LA
Elevation: 13 ft
Nearby Weather Stations

Elev 13 ft 30.01 °N, 90.06 °W | Updated 3 minutes ago

Overcast
Overcast
83.5 °F
Feels Like 91 °F
N
3.0
Wind Variable Wind from South
Gusts 0.0 mph

Today
High -- | Low -- °F
--% Chance of Precip.
Yesterday
High -- | Low -- °F
Precip. -- in
6:37 AM 7:21 PM
Waning Gibbous, 76% visible
Pressure 29.99 in
Visibility 10.0 miles
Clouds Scattered Clouds 11000 ft
Heat Index 91 °F
Dew Point 75 °F
Humidity 76%
Rainfall 0.09 in
Snow Depth Not available.
UV 3 out of 12
Pollen 7.90 out of 12
Air Quality Not available.
Flu Activity Not available.
METAR KNEW 022153Z 16006KT 10SM SCT110 28/22 A3001 RMK AO2 SLP156 T02780217
Pressure 29.99 in
Visibility 10.0 miles
Clouds Scattered Clouds 11000 ft
Heat Index 91 °F
Dew Point 75 °F
Humidity 76%
Rainfall 0.09 in
Snow Depth Not available.
UV 3 out of 12
Pollen 7.90 out of 12
Air Quality Not available.
Flu Activity Not available.
METAR KNEW 022153Z 16006KT 10SM SCT110 28/22 A3001 RMK AO2 SLP156 T02780217

10-Day Weather Forecast

×

Almanac

Astronomy

Sep. 02, 2015 Rise Set
Actual Time
Civil Twilight
Nautical Twilight
Astronomical Twilight
Moon
Length of Visible Light
Length of Day
Tomorrow will be .
, % of the Moon is Illuminated

Today's Extremes

State Highs State Lows

Community

WunderPhotos

Upload Photos

1,851,828 photos uploaded!

WunderBlogs® & News

Nearby

Air Quality

  Air Quality AQ Index Pollutant
Not available.

Snow Depth

Station Depth Elevation

Earthquake Activity

City Distance Mag. Time & Date
Minimum magnitude displayed is 2.5.

Coastal Water Temperatures

Place Temperature

Stations

Nearby Weather Stations

Station Location Temp. Windchill Dew Point Humidity Wind Precip. Elev Updated Type